Aviation Digital Data Service (ADDS)

Output produced by TAFs form (2353 UTC 19 October 2017)
found at http://aviationweather.gov/adds/tafs/
 
KGJT 192323Z 2000/2024 31003KT P6SM FEW120 BKN200 
     FM200200 10005KT P6SM SCT110 BKN200 
     FM200900 12009KT P6SM FEW100 SCT200 
     FM201700 18015G24KT P6SM FEW080 FEW250 
     FM201900 21018G30KT P6SM FEW080 FEW200 
     FM202200 24016G27KT P6SM FEW100 SCT200